Laura Airport


Codes: YLRA/LUU
Name: Laura Airport
City:
Country: Australia
Elevation: 0 ft.

Photos at Laura Airport


   Photos courtesy of SpottingLog. You can add your own sightings and photos by signing up for a free trial today.



No photos found.

Weather at Laura Airport


Time (UTC)DescriptionTempratureWindCloud coverageVisibilityPressureHumidity
26-Jun-2024 00:00Broken Clouds28°C13 mph, E58%10000m1016hPa65%
26-Jun-2024 03:00Light Rain29°C13 mph, E60%10000m1015hPa60%
26-Jun-2024 06:00Broken Clouds29°C13 mph, E68%10000m1013hPa58%
26-Jun-2024 09:00Scattered Clouds25°C9 mph, E30%10000m1013hPa73%
26-Jun-2024 12:00Few Clouds23°C9 mph, E18%10000m1015hPa84%
26-Jun-2024 15:00Broken Clouds23°C7 mph, SE68%10000m1014hPa89%
26-Jun-2024 18:00Broken Clouds22°C4 mph, E84%10000m1013hPa95%
26-Jun-2024 21:00Overcast Clouds22°C9 mph, E100%10000m1014hPa92%
27-Jun-2024 00:00Overcast Clouds29°C13 mph, E100%10000m1015hPa62%
27-Jun-2024 03:00Overcast Clouds32°C13 mph, E93%10000m1012hPa50%
27-Jun-2024 06:00Overcast Clouds30°C13 mph, E91%10000m1011hPa53%
27-Jun-2024 09:00Scattered Clouds25°C9 mph, E28%10000m1014hPa73%
27-Jun-2024 12:00Few Clouds23°C7 mph, SE16%10000m1015hPa83%
27-Jun-2024 15:00Few Clouds23°C9 mph, SE13%10000m1014hPa85%
27-Jun-2024 18:00Few Clouds23°C9 mph, E12%10000m1014hPa82%
27-Jun-2024 21:00Clear Sky23°C11 mph, E6%10000m1015hPa82%
28-Jun-2024 00:00Few Clouds29°C16 mph, E12%10000m1016hPa55%
28-Jun-2024 03:00Broken Clouds32°C16 mph, E62%10000m1014hPa46%
28-Jun-2024 06:00Broken Clouds30°C16 mph, E63%10000m1013hPa49%
28-Jun-2024 09:00Scattered Clouds24°C11 mph, E27%10000m1015hPa69%
28-Jun-2024 12:00Broken Clouds22°C9 mph, E59%10000m1016hPa82%
28-Jun-2024 15:00Few Clouds21°C7 mph, E24%10000m1015hPa85%
28-Jun-2024 18:00Few Clouds22°C9 mph, E14%10000m1015hPa84%
28-Jun-2024 21:00Clear Sky22°C11 mph, E7%10000m1016hPa79%
29-Jun-2024 00:00Clear Sky28°C16 mph, E5%10000m1016hPa50%
29-Jun-2024 03:00Clear Sky31°C16 mph, E5%10000m1014hPa39%
29-Jun-2024 06:00Clear Sky29°C18 mph, E6%10000m1013hPa43%
29-Jun-2024 09:00Clear Sky24°C13 mph, E5%10000m1015hPa66%
29-Jun-2024 12:00Clear Sky22°C9 mph, E4%10000m1016hPa72%
29-Jun-2024 15:00Scattered Clouds22°C9 mph, E35%10000m1015hPa78%
29-Jun-2024 18:00Few Clouds22°C9 mph, E22%10000m1015hPa79%
29-Jun-2024 21:00Clear Sky22°C9 mph, E5%10000m1015hPa79%
30-Jun-2024 00:00Few Clouds29°C16 mph, E20%10000m1015hPa47%
30-Jun-2024 03:00Scattered Clouds32°C16 mph, E27%10000m1013hPa37%
30-Jun-2024 06:00Scattered Clouds30°C16 mph, E44%10000m1012hPa42%
30-Jun-2024 09:00Broken Clouds24°C11 mph, E51%10000m1013hPa64%
30-Jun-2024 12:00Broken Clouds22°C11 mph, E59%10000m1015hPa80%
30-Jun-2024 15:00Overcast Clouds22°C9 mph, E95%10000m1015hPa83%
30-Jun-2024 18:00Broken Clouds21°C7 mph, E69%10000m1014hPa80%
30-Jun-2024 21:00Scattered Clouds20°C7 mph, E26%10000m1015hPa85%